sensor_id;sensor_type;location;lat;lon;timestamp;pressure;altitude;pressure_sealevel;temperature
22269;BMP280;11303;50.772;19.670;2023-01-15T00:01:31;98373.09;;;2.10
22269;BMP280;11303;50.772;19.670;2023-01-15T00:03:34;98362.53;;;2.06
22269;BMP280;11303;50.772;19.670;2023-01-15T00:05:36;98368.53;;;2.07
22269;BMP280;11303;50.772;19.670;2023-01-15T00:07:38;98352.41;;;2.05
22269;BMP280;11303;50.772;19.670;2023-01-15T00:09:39;98350.97;;;2.07
22269;BMP280;11303;50.772;19.670;2023-01-15T00:11:41;98348.34;;;2.07
22269;BMP280;11303;50.772;19.670;2023-01-15T00:13:43;98337.97;;;2.11
22269;BMP280;11303;50.772;19.670;2023-01-15T00:15:45;98335.78;;;2.13
22269;BMP280;11303;50.772;19.670;2023-01-15T00:17:47;98323.19;;;2.18
22269;BMP280;11303;50.772;19.670;2023-01-15T00:19:48;98309.84;;;2.23
22269;BMP280;11303;50.772;19.670;2023-01-15T00:21:50;98309.94;;;2.30
22269;BMP280;11303;50.772;19.670;2023-01-15T00:23:54;98307.88;;;2.40
22269;BMP280;11303;50.772;19.670;2023-01-15T00:26:19;98307.31;;;2.50
22269;BMP280;11303;50.772;19.670;2023-01-15T00:28:40;98301.13;;;2.58
22269;BMP280;11303;50.772;19.670;2023-01-15T00:30:42;98292.94;;;2.63
22269;BMP280;11303;50.772;19.670;2023-01-15T00:32:43;98287.44;;;2.68
22269;BMP280;11303;50.772;19.670;2023-01-15T00:34:45;98280.81;;;2.74
22269;BMP280;11303;50.772;19.670;2023-01-15T00:36:46;98274.16;;;2.80
22269;BMP280;11303;50.772;19.670;2023-01-15T00:38:48;98278.72;;;2.83
22269;BMP280;11303;50.772;19.670;2023-01-15T00:40:50;98257.50;;;2.88
22269;BMP280;11303;50.772;19.670;2023-01-15T00:42:53;98263.16;;;2.93
22269;BMP280;11303;50.772;19.670;2023-01-15T00:44:55;98263.22;;;2.97
22269;BMP280;11303;50.772;19.670;2023-01-15T00:46:56;98255.75;;;2.99
22269;BMP280;11303;50.772;19.670;2023-01-15T00:48:58;98267.69;;;2.96
22269;BMP280;11303;50.772;19.670;2023-01-15T00:50:59;98269.19;;;2.97
22269;BMP280;11303;50.772;19.670;2023-01-15T00:53:01;98259.13;;;2.99
22269;BMP280;11303;50.772;19.670;2023-01-15T00:55:03;98258.78;;;3.01
22269;BMP280;11303;50.772;19.670;2023-01-15T00:57:04;98257.28;;;3.00
22269;BMP280;11303;50.772;19.670;2023-01-15T00:59:06;98258.78;;;3.01
22269;BMP280;11303;50.772;19.670;2023-01-15T01:01:08;98238.94;;;3.00
22269;BMP280;11303;50.772;19.670;2023-01-15T01:03:09;98243.00;;;2.97
22269;BMP280;11303;50.772;19.670;2023-01-15T01:05:11;98243.78;;;2.98
22269;BMP280;11303;50.772;19.670;2023-01-15T01:07:13;98221.34;;;3.00
22269;BMP280;11303;50.772;19.670;2023-01-15T01:09:15;98217.69;;;3.05
22269;BMP280;11303;50.772;19.670;2023-01-15T01:11:19;98207.97;;;3.05
22269;BMP280;11303;50.772;19.670;2023-01-15T01:13:21;98208.72;;;3.06
22269;BMP280;11303;50.772;19.670;2023-01-15T01:15:22;98200.19;;;3.09
22269;BMP280;11303;50.772;19.670;2023-01-15T01:17:26;98197.56;;;3.09
22269;BMP280;11303;50.772;19.670;2023-01-15T01:19:27;98181.06;;;3.08
22269;BMP280;11303;50.772;19.670;2023-01-15T01:21:29;98190.06;;;3.07
22269;BMP280;11303;50.772;19.670;2023-01-15T01:23:31;98181.84;;;3.09
22269;BMP280;11303;50.772;19.670;2023-01-15T01:25:33;98178.09;;;3.10
22269;BMP280;11303;50.772;19.670;2023-01-15T01:27:35;98172.88;;;3.10
22269;BMP280;11303;50.772;19.670;2023-01-15T01:29:36;98173.22;;;3.08
22269;BMP280;11303;50.772;19.670;2023-01-15T01:31:38;98169.84;;;3.08
22269;BMP280;11303;50.772;19.670;2023-01-15T01:33:40;98172.09;;;3.09
22269;BMP280;11303;50.772;19.670;2023-01-15T01:35:49;98159.34;;;3.08
22269;BMP280;11303;50.772;19.670;2023-01-15T01:37:50;98169.84;;;3.08
22269;BMP280;11303;50.772;19.670;2023-01-15T01:39:52;98157.84;;;3.07
22269;BMP280;11303;50.772;19.670;2023-01-15T01:41:54;98153.38;;;3.07
22269;BMP280;11303;50.772;19.670;2023-01-15T01:43:58;98149.59;;;3.05
22269;BMP280;11303;50.772;19.670;2023-01-15T01:46:00;98142.13;;;3.07
22269;BMP280;11303;50.772;19.670;2023-01-15T01:48:04;98146.66;;;3.10
22269;BMP280;11303;50.772;19.670;2023-01-15T01:50:10;98145.59;;;3.14
22269;BMP280;11303;50.772;19.670;2023-01-15T01:52:15;98145.25;;;3.16
22269;BMP280;11303;50.772;19.670;2023-01-15T01:54:20;98139.97;;;3.12
22269;BMP280;11303;50.772;19.670;2023-01-15T01:56:23;98139.16;;;3.08
22269;BMP280;11303;50.772;19.670;2023-01-15T01:58:27;98133.50;;;3.06
22269;BMP280;11303;50.772;19.670;2023-01-15T02:00:32;98138.00;;;3.06
22269;BMP280;11303;50.772;19.670;2023-01-15T02:02:34;98126.41;;;3.07
22269;BMP280;11303;50.772;19.670;2023-01-15T02:04:36;98130.50;;;3.04
22269;BMP280;11303;50.772;19.670;2023-01-15T02:06:40;98131.59;;;3.03
22269;BMP280;11303;50.772;19.670;2023-01-15T02:08:42;98146.16;;;3.01
22269;BMP280;11303;50.772;19.670;2023-01-15T02:10:49;98128.91;;;2.96
22269;BMP280;11303;50.772;19.670;2023-01-15T02:13:13;98126.63;;;2.95
22269;BMP280;11303;50.772;19.670;2023-01-15T02:15:21;98129.25;;;2.95
22269;BMP280;11303;50.772;19.670;2023-01-15T02:18:05;98120.56;;;2.87
22269;BMP280;11303;50.772;19.670;2023-01-15T02:22:56;98122.31;;;2.80
22269;BMP280;11303;50.772;19.670;2023-01-15T02:27:15;98118.44;;;2.70
22269;BMP280;11303;50.772;19.670;2023-01-15T02:31:44;98101.09;;;2.59
22269;BMP280;11303;50.772;19.670;2023-01-15T02:33:48;98101.06;;;2.55
22269;BMP280;11303;50.772;19.670;2023-01-15T02:35:55;98100.66;;;2.53
22269;BMP280;11303;50.772;19.670;2023-01-15T02:38:05;98089.81;;;2.55
22269;BMP280;11303;50.772;19.670;2023-01-15T02:40:09;98083.78;;;2.51
22269;BMP280;11303;50.772;19.670;2023-01-15T02:42:13;98079.25;;;2.48
22269;BMP280;11303;50.772;19.670;2023-01-15T02:44:17;98075.47;;;2.45
22269;BMP280;11303;50.772;19.670;2023-01-15T02:46:24;98089.25;;;2.42
22269;BMP280;11303;50.772;19.670;2023-01-15T02:48:29;98081.41;;;2.42
22269;BMP280;11303;50.772;19.670;2023-01-15T02:50:36;98079.53;;;2.43
22269;BMP280;11303;50.772;19.670;2023-01-15T02:52:46;98075.88;;;2.47
22269;BMP280;11303;50.772;19.670;2023-01-15T02:54:51;98069.88;;;2.47
22269;BMP280;11303;50.772;19.670;2023-01-15T02:56:56;98073.97;;;2.44
22269;BMP280;11303;50.772;19.670;2023-01-15T02:59:04;98074.72;;;2.45
22269;BMP280;11303;50.772;19.670;2023-01-15T03:01:17;98068.03;;;2.47
22269;BMP280;11303;50.772;19.670;2023-01-15T03:03:30;98073.31;;;2.51
22269;BMP280;11303;50.772;19.670;2023-01-15T03:05:39;98083.88;;;2.58
22269;BMP280;11303;50.772;19.670;2023-01-15T03:07:47;98053.47;;;2.76
22269;BMP280;11303;50.772;19.670;2023-01-15T03:09:51;98058.13;;;2.89
22269;BMP280;11303;50.772;19.670;2023-01-15T03:12:04;98057.72;;;3.20
22269;BMP280;11303;50.772;19.670;2023-01-15T03:14:23;98049.75;;;3.43
22269;BMP280;11303;50.772;19.670;2023-01-15T03:16:35;98043.16;;;3.59
22269;BMP280;11303;50.772;19.670;2023-01-15T03:18:49;98048.13;;;3.75
22269;BMP280;11303;50.772;19.670;2023-01-15T03:20:56;98047.09;;;3.83
22269;BMP280;11303;50.772;19.670;2023-01-15T03:23:08;98039.72;;;3.99
22269;BMP280;11303;50.772;19.670;2023-01-15T03:25:18;98031.88;;;4.06
22269;BMP280;11303;50.772;19.670;2023-01-15T03:27:21;98028.19;;;4.14
22269;BMP280;11303;50.772;19.670;2023-01-15T03:29:26;98014.38;;;4.24
22269;BMP280;11303;50.772;19.670;2023-01-15T03:31:28;98027.50;;;4.20
22269;BMP280;11303;50.772;19.670;2023-01-15T03:33:30;98014.06;;;4.29
22269;BMP280;11303;50.772;19.670;2023-01-15T03:37:46;98002.84;;;4.39
22269;BMP280;11303;50.772;19.670;2023-01-15T03:39:47;98001.78;;;4.47
22269;BMP280;11303;50.772;19.670;2023-01-15T03:41:59;98013.81;;;4.58
22269;BMP280;11303;50.772;19.670;2023-01-15T03:48:43;98016.13;;;4.77
22269;BMP280;11303;50.772;19.670;2023-01-15T03:50:54;98014.66;;;4.83
22269;BMP280;11303;50.772;19.670;2023-01-15T03:53:13;98029.38;;;5.16
22269;BMP280;11303;50.772;19.670;2023-01-15T03:58:16;98019.63;;;5.83
22269;BMP280;11303;50.772;19.670;2023-01-15T04:00:00;98009.47;;;6.06
22269;BMP280;11303;50.772;19.670;2023-01-15T04:02:06;98003.06;;;6.21
22269;BMP280;11303;50.772;19.670;2023-01-15T04:04:09;97983.09;;;6.27
22269;BMP280;11303;50.772;19.670;2023-01-15T04:06:11;97981.19;;;6.38
22269;BMP280;11303;50.772;19.670;2023-01-15T04:08:14;97981.53;;;6.44
22269;BMP280;11303;50.772;19.670;2023-01-15T04:10:18;97979.97;;;6.53
22269;BMP280;11303;50.772;19.670;2023-01-15T04:12:19;97981.84;;;6.56
22269;BMP280;11303;50.772;19.670;2023-01-15T04:14:21;97969.81;;;6.55
22269;BMP280;11303;50.772;19.670;2023-01-15T04:16:28;97952.06;;;6.63
22269;BMP280;11303;50.772;19.670;2023-01-15T04:18:30;97953.56;;;6.67
22269;BMP280;11303;50.772;19.670;2023-01-15T04:20:32;97953.56;;;6.67
22269;BMP280;11303;50.772;19.670;2023-01-15T04:22:33;97944.53;;;6.68
22269;BMP280;11303;50.772;19.670;2023-01-15T04:24:37;97934.75;;;6.72
22269;BMP280;11303;50.772;19.670;2023-01-15T04:26:38;97947.53;;;6.70
22269;BMP280;11303;50.772;19.670;2023-01-15T04:28:40;97925.69;;;6.70
22269;BMP280;11303;50.772;19.670;2023-01-15T04:30:42;97949.41;;;6.70
22269;BMP280;11303;50.772;19.670;2023-01-15T04:32:47;97938.50;;;6.71
22269;BMP280;11303;50.772;19.670;2023-01-15T04:34:49;97927.53;;;6.76
22269;BMP280;11303;50.772;19.670;2023-01-15T04:36:51;97941.88;;;6.72
22269;BMP280;11303;50.772;19.670;2023-01-15T04:38:52;97942.25;;;6.70
22269;BMP280;11303;50.772;19.670;2023-01-15T04:40:55;97936.22;;;6.70
22269;BMP280;11303;50.772;19.670;2023-01-15T04:43:19;97940.00;;;6.65
22269;BMP280;11303;50.772;19.670;2023-01-15T04:45:39;97931.00;;;6.66
22269;BMP280;11303;50.772;19.670;2023-01-15T04:47:40;97932.50;;;6.67
22269;BMP280;11303;50.772;19.670;2023-01-15T04:49:42;97936.63;;;6.72
22269;BMP280;11303;50.772;19.670;2023-01-15T04:51:44;97932.50;;;6.71
22269;BMP280;11303;50.772;19.670;2023-01-15T04:53:46;97934.75;;;6.72
22269;BMP280;11303;50.772;19.670;2023-01-15T04:55:47;97929.78;;;6.78
22269;BMP280;11303;50.772;19.670;2023-01-15T04:57:49;97938.06;;;6.76
22269;BMP280;11303;50.772;19.670;2023-01-15T04:59:50;97923.38;;;6.79
22269;BMP280;11303;50.772;19.670;2023-01-15T05:01:52;97944.44;;;6.82
22269;BMP280;11303;50.772;19.670;2023-01-15T05:04:06;97939.19;;;6.82
22269;BMP280;11303;50.772;19.670;2023-01-15T05:06:08;97925.25;;;6.82
22269;BMP280;11303;50.772;19.670;2023-01-15T05:08:09;97934.97;;;6.88
22269;BMP280;11303;50.772;19.670;2023-01-15T05:10:11;97927.06;;;6.88
22269;BMP280;11303;50.772;19.670;2023-01-15T05:12:12;97938.00;;;6.90
22269;BMP280;11303;50.772;19.670;2023-01-15T05:14:14;97939.13;;;6.89
22269;BMP280;11303;50.772;19.670;2023-01-15T05:16:19;97927.47;;;6.90
22269;BMP280;11303;50.772;19.670;2023-01-15T05:18:20;97930.81;;;6.94
22269;BMP280;11303;50.772;19.670;2023-01-15T05:20:22;97925.53;;;6.94
22269;BMP280;11303;50.772;19.670;2023-01-15T05:22:23;97924.06;;;6.93
22269;BMP280;11303;50.772;19.670;2023-01-15T05:24:25;97922.53;;;6.92
22269;BMP280;11303;50.772;19.670;2023-01-15T05:26:29;97905.22;;;6.95
22269;BMP280;11303;50.772;19.670;2023-01-15T05:28:30;97895.03;;;6.97
22269;BMP280;11303;50.772;19.670;2023-01-15T05:30:32;97891.59;;;7.00
22269;BMP280;11303;50.772;19.670;2023-01-15T05:32:33;97903.28;;;7.02
22269;BMP280;11303;50.772;19.670;2023-01-15T05:34:35;97885.94;;;7.01
22269;BMP280;11303;50.772;19.670;2023-01-15T05:36:37;97892.69;;;7.06
22269;BMP280;11303;50.772;19.670;2023-01-15T05:38:38;97887.03;;;7.07
22269;BMP280;11303;50.772;19.670;2023-01-15T05:40:40;97889.59;;;7.14
22269;BMP280;11303;50.772;19.670;2023-01-15T05:42:42;97885.06;;;7.18
22269;BMP280;11303;50.772;19.670;2023-01-15T05:44:43;97881.28;;;7.19
22269;BMP280;11303;50.772;19.670;2023-01-15T05:46:46;97886.16;;;7.21
22269;BMP280;11303;50.772;19.670;2023-01-15T05:48:48;97884.69;;;7.16
22269;BMP280;11303;50.772;19.670;2023-01-15T05:50:49;97881.69;;;7.14
22269;BMP280;11303;50.772;19.670;2023-01-15T05:52:51;97881.69;;;7.14
22269;BMP280;11303;50.772;19.670;2023-01-15T05:54:52;97866.63;;;7.11
22269;BMP280;11303;50.772;19.670;2023-01-15T05:56:54;97870.13;;;7.05
22269;BMP280;11303;50.772;19.670;2023-01-15T05:58:56;97866.75;;;7.01
22269;BMP280;11303;50.772;19.670;2023-01-15T06:00:57;97861.13;;;6.99
22269;BMP280;11303;50.772;19.670;2023-01-15T06:02:59;97864.47;;;7.03
22269;BMP280;11303;50.772;19.670;2023-01-15T06:05:01;97855.06;;;7.05
22269;BMP280;11303;50.772;19.670;2023-01-15T06:07:02;97871.97;;;7.04
22269;BMP280;11303;50.772;19.670;2023-01-15T06:09:04;97871.25;;;7.04
22269;BMP280;11303;50.772;19.670;2023-01-15T06:11:06;97872.34;;;7.06
22269;BMP280;11303;50.772;19.670;2023-01-15T06:13:08;97871.22;;;7.07
22269;BMP280;11303;50.772;19.670;2023-01-15T06:15:10;97868.19;;;7.09
22269;BMP280;11303;50.772;19.670;2023-01-15T06:17:12;97866.94;;;7.20
22269;BMP280;11303;50.772;19.670;2023-01-15T06:19:15;97877.78;;;7.29
22269;BMP280;11303;50.772;19.670;2023-01-15T06:21:17;97869.09;;;7.32
22269;BMP280;11303;50.772;19.670;2023-01-15T06:23:19;97862.63;;;7.37
22269;BMP280;11303;50.772;19.670;2023-01-15T06:25:20;97862.63;;;7.40
22269;BMP280;11303;50.772;19.670;2023-01-15T06:27:22;97869.75;;;7.43
22269;BMP280;11303;50.772;19.670;2023-01-15T06:29:24;97878.44;;;7.44
22269;BMP280;11303;50.772;19.670;2023-01-15T06:31:25;97871.31;;;7.37
22269;BMP280;11303;50.772;19.670;2023-01-15T06:33:27;97883.81;;;7.33
22269;BMP280;11303;50.772;19.670;2023-01-15T06:35:29;97888.34;;;7.29
22269;BMP280;11303;50.772;19.670;2023-01-15T06:37:30;97882.72;;;7.27
22269;BMP280;11303;50.772;19.670;2023-01-15T06:39:32;97887.22;;;7.27
22269;BMP280;11303;50.772;19.670;2023-01-15T06:41:33;97887.63;;;7.25
22269;BMP280;11303;50.772;19.670;2023-01-15T06:43:53;97891.06;;;7.22
22269;BMP280;11303;50.772;19.670;2023-01-15T06:46:15;97888.41;;;7.22
22269;BMP280;11303;50.772;19.670;2023-01-15T06:48:35;97894.06;;;7.21
22269;BMP280;11303;50.772;19.670;2023-01-15T06:50:37;97886.94;;;7.18
22269;BMP280;11303;50.772;19.670;2023-01-15T06:52:38;97880.91;;;7.17
22269;BMP280;11303;50.772;19.670;2023-01-15T06:54:40;97884.69;;;7.16
22269;BMP280;11303;50.772;19.670;2023-01-15T06:56:41;97878.69;;;7.12
22269;BMP280;11303;50.772;19.670;2023-01-15T06:58:43;97892.59;;;7.16
22269;BMP280;11303;50.772;19.670;2023-01-15T07:00:45;97887.03;;;7.11
22269;BMP280;11303;50.772;19.670;2023-01-15T07:02:53;97886.25;;;7.10
22269;BMP280;11303;50.772;19.670;2023-01-15T07:04:55;97885.88;;;7.08
22269;BMP280;11303;50.772;19.670;2023-01-15T07:06:57;97882.91;;;7.06
22269;BMP280;11303;50.772;19.670;2023-01-15T07:08:58;97884.00;;;7.09
22269;BMP280;11303;50.772;19.670;2023-01-15T07:11:02;97876.78;;;7.13
22269;BMP280;11303;50.772;19.670;2023-01-15T07:13:03;97879.41;;;7.16
22269;BMP280;11303;50.772;19.670;2023-01-15T07:15:05;97874.13;;;7.20
22269;BMP280;11303;50.772;19.670;2023-01-15T07:17:07;97886.13;;;7.24
22269;BMP280;11303;50.772;19.670;2023-01-15T07:19:09;97886.13;;;7.24
22269;BMP280;11303;50.772;19.670;2023-01-15T07:21:11;97880.09;;;7.27
22269;BMP280;11303;50.772;19.670;2023-01-15T07:23:13;97881.19;;;7.30
22269;BMP280;11303;50.772;19.670;2023-01-15T07:25:17;97895.09;;;7.34
22269;BMP280;11303;50.772;19.670;2023-01-15T07:27:19;97897.28;;;7.39
22269;BMP280;11303;50.772;19.670;2023-01-15T07:29:20;97893.50;;;7.43
22269;BMP280;11303;50.772;19.670;2023-01-15T07:31:23;97890.44;;;7.48
22269;BMP280;11303;50.772;19.670;2023-01-15T07:33:25;97889.66;;;7.51
22269;BMP280;11303;50.772;19.670;2023-01-15T07:35:26;97880.97;;;7.54
22269;BMP280;11303;50.772;19.670;2023-01-15T07:37:28;97886.56;;;7.56
22269;BMP280;11303;50.772;19.670;2023-01-15T07:39:30;97892.19;;;7.58
22269;BMP280;11303;50.772;19.670;2023-01-15T07:41:32;97888.78;;;7.61
22269;BMP280;11303;50.772;19.670;2023-01-15T07:43:52;97885.38;;;7.64
22269;BMP280;11303;50.772;19.670;2023-01-15T07:46:12;97888.38;;;7.66
22269;BMP280;11303;50.772;19.670;2023-01-15T07:48:46;97897.41;;;7.65
22269;BMP280;11303;50.772;19.670;2023-01-15T07:51:06;97888.38;;;7.66
22269;BMP280;11303;50.772;19.670;2023-01-15T07:53:07;97881.56;;;7.65
22269;BMP280;11303;50.772;19.670;2023-01-15T07:55:10;97875.91;;;7.67
22269;BMP280;11303;50.772;19.670;2023-01-15T07:57:15;97882.72;;;7.68
22269;BMP280;11303;50.772;19.670;2023-01-15T07:59:18;97889.44;;;7.69
22269;BMP280;11303;50.772;19.670;2023-01-15T08:01:20;97879.69;;;7.66
22269;BMP280;11303;50.772;19.670;2023-01-15T08:03:22;97882.72;;;7.68
22269;BMP280;11303;50.772;19.670;2023-01-15T08:05:23;97875.19;;;7.66
22269;BMP280;11303;50.772;19.670;2023-01-15T08:07:25;97886.75;;;7.72
22269;BMP280;11303;50.772;19.670;2023-01-15T08:09:27;97882.63;;;7.71
22269;BMP280;11303;50.772;19.670;2023-01-15T08:11:29;97873.22;;;7.70
22269;BMP280;11303;50.772;19.670;2023-01-15T08:13:49;97886.81;;;7.69
22269;BMP280;11303;50.772;19.670;2023-01-15T08:16:09;97880.47;;;7.66
22269;BMP280;11303;50.772;19.670;2023-01-15T08:18:11;97872.84;;;7.68
22269;BMP280;11303;50.772;19.670;2023-01-15T08:20:15;97883.38;;;7.72
22269;BMP280;11303;50.772;19.670;2023-01-15T08:22:17;97888.66;;;7.72
22269;BMP280;11303;50.772;19.670;2023-01-15T08:24:19;97881.47;;;7.72
22269;BMP280;11303;50.772;19.670;2023-01-15T08:26:20;97864.53;;;7.73
22269;BMP280;11303;50.772;19.670;2023-01-15T08:28:22;97872.00;;;7.78
22269;BMP280;11303;50.772;19.670;2023-01-15T08:30:24;97872.72;;;7.82
22269;BMP280;11303;50.772;19.670;2023-01-15T08:32:25;97867.44;;;7.82
22269;BMP280;11303;50.772;19.670;2023-01-15T08:34:27;97862.88;;;7.83
22269;BMP280;11303;50.772;19.670;2023-01-15T08:36:29;97866.66;;;7.85
22269;BMP280;11303;50.772;19.670;2023-01-15T08:38:30;97873.41;;;7.86
22269;BMP280;11303;50.772;19.670;2023-01-15T08:40:33;97871.16;;;7.88
22269;BMP280;11303;50.772;19.670;2023-01-15T08:42:36;97863.97;;;7.89
22269;BMP280;11303;50.772;19.670;2023-01-15T08:44:38;97865.78;;;7.92
22269;BMP280;11303;50.772;19.670;2023-01-15T08:46:40;97866.91;;;7.94
22269;BMP280;11303;50.772;19.670;2023-01-15T08:48:41;97868.41;;;7.95
22269;BMP280;11303;50.772;19.670;2023-01-15T08:50:44;97865.06;;;7.91
22269;BMP280;11303;50.772;19.670;2023-01-15T08:52:45;97865.06;;;7.91
22269;BMP280;11303;50.772;19.670;2023-01-15T08:54:47;97867.25;;;7.96
22269;BMP280;11303;50.772;19.670;2023-01-15T08:56:49;97852.56;;;7.95
22269;BMP280;11303;50.772;19.670;2023-01-15T08:58:50;97863.88;;;7.96
22269;BMP280;11303;50.772;19.670;2023-01-15T09:00:52;97860.75;;;8.01
22269;BMP280;11303;50.772;19.670;2023-01-15T09:02:54;97853.59;;;8.01
22269;BMP280;11303;50.772;19.670;2023-01-15T09:04:55;97863.38;;;8.04
22269;BMP280;11303;50.772;19.670;2023-01-15T09:06:57;97835.81;;;8.05
22269;BMP280;11303;50.772;19.670;2023-01-15T09:08:59;97853.91;;;8.07
22269;BMP280;11303;50.772;19.670;2023-01-15T09:11:02;97846.75;;;8.07
22269;BMP280;11303;50.772;19.670;2023-01-15T09:13:04;97843.34;;;8.07
22269;BMP280;11303;50.772;19.670;2023-01-15T09:15:06;97843.31;;;8.10
22269;BMP280;11303;50.772;19.670;2023-01-15T09:17:08;97837.63;;;8.12
22269;BMP280;11303;50.772;19.670;2023-01-15T09:19:09;97841.03;;;8.12
22269;BMP280;11303;50.772;19.670;2023-01-15T09:21:11;97829.31;;;8.13
22269;BMP280;11303;50.772;19.670;2023-01-15T09:23:13;97836.09;;;8.14
22269;BMP280;11303;50.772;19.670;2023-01-15T09:25:16;97829.69;;;8.15
22269;BMP280;11303;50.772;19.670;2023-01-15T09:27:19;97833.44;;;8.14
22269;BMP280;11303;50.772;19.670;2023-01-15T09:29:21;97833.44;;;8.14
22269;BMP280;11303;50.772;19.670;2023-01-15T09:31:23;97826.66;;;8.13
22269;BMP280;11303;50.772;19.670;2023-01-15T09:33:24;97825.53;;;8.14
22269;BMP280;11303;50.772;19.670;2023-01-15T09:35:26;97830.41;;;8.16
22269;BMP280;11303;50.772;19.670;2023-01-15T09:37:28;97832.31;;;8.15
22269;BMP280;11303;50.772;19.670;2023-01-15T09:39:29;97832.31;;;8.15
22269;BMP280;11303;50.772;19.670;2023-01-15T09:41:58;97833.81;;;8.16
22269;BMP280;11303;50.772;19.670;2023-01-15T09:46:31;97819.84;;;8.16
22269;BMP280;11303;50.772;19.670;2023-01-15T09:48:42;97816.81;;;8.17
22269;BMP280;11303;50.772;19.670;2023-01-15T09:53:39;97818.72;;;8.17
22269;BMP280;11303;50.772;19.670;2023-01-15T09:55:46;97808.88;;;8.17
22269;BMP280;11303;50.772;19.670;2023-01-15T09:57:52;97791.91;;;8.18
22269;BMP280;11303;50.772;19.670;2023-01-15T09:59:55;97808.88;;;8.17
22269;BMP280;11303;50.772;19.670;2023-01-15T10:04:34;97803.28;;;8.15
22269;BMP280;11303;50.772;19.670;2023-01-15T10:06:44;97788.63;;;8.11
22269;BMP280;11303;50.772;19.670;2023-01-15T10:08:49;97788.56;;;8.14
22269;BMP280;11303;50.772;19.670;2023-01-15T10:10:59;97781.03;;;8.13
22269;BMP280;11303;50.772;19.670;2023-01-15T10:13:09;97786.66;;;8.15
22269;BMP280;11303;50.772;19.670;2023-01-15T10:15:27;97781.34;;;8.18
22269;BMP280;11303;50.772;19.670;2023-01-15T10:19:41;97773.66;;;8.27
22269;BMP280;11303;50.772;19.670;2023-01-15T10:23:59;97765.25;;;8.32
22269;BMP280;11303;50.772;19.670;2023-01-15T10:28:25;97771.53;;;8.42
22269;BMP280;11303;50.772;19.670;2023-01-15T10:30:40;97763.16;;;8.47
22269;BMP280;11303;50.772;19.670;2023-01-15T10:32:45;97754.09;;;8.48
22269;BMP280;11303;50.772;19.670;2023-01-15T10:37:36;97752.53;;;8.50
22269;BMP280;11303;50.772;19.670;2023-01-15T10:39:53;97750.34;;;8.45
22269;BMP280;11303;50.772;19.670;2023-01-15T10:47:22;97742.41;;;8.22
22269;BMP280;11303;50.772;19.670;2023-01-15T10:49:32;97739.53;;;8.13
22269;BMP280;11303;50.772;19.670;2023-01-15T10:52:03;97729.38;;;8.12
22269;BMP280;11303;50.772;19.670;2023-01-15T11:00:40;97720.94;;;7.97
22269;BMP280;11303;50.772;19.670;2023-01-15T11:03:07;97725.81;;;7.99
22269;BMP280;11303;50.772;19.670;2023-01-15T11:05:21;97704.22;;;8.04
22269;BMP280;11303;50.772;19.670;2023-01-15T11:07:37;97704.19;;;8.07
22269;BMP280;11303;50.772;19.670;2023-01-15T11:10:02;97695.44;;;8.10
22269;BMP280;11303;50.772;19.670;2023-01-15T11:12:21;97695.44;;;8.10
22269;BMP280;11303;50.772;19.670;2023-01-15T11:14:37;97682.25;;;8.10
22269;BMP280;11303;50.772;19.670;2023-01-15T11:16:57;97692.31;;;8.19
22269;BMP280;11303;50.772;19.670;2023-01-15T11:19:35;97665.66;;;8.10
22269;BMP280;11303;50.772;19.670;2023-01-15T11:21:40;97679.97;;;8.12
22269;BMP280;11303;50.772;19.670;2023-01-15T11:23:42;97676.94;;;8.14
22269;BMP280;11303;50.772;19.670;2023-01-15T11:26:04;97675.72;;;8.18
22269;BMP280;11303;50.772;19.670;2023-01-15T11:28:06;97667.66;;;8.25
22269;BMP280;11303;50.772;19.670;2023-01-15T11:30:32;97654.31;;;8.32
22269;BMP280;11303;50.772;19.670;2023-01-15T11:32:36;97670.06;;;8.39
22269;BMP280;11303;50.772;19.670;2023-01-15T11:34:38;97666.69;;;8.39
22269;BMP280;11303;50.772;19.670;2023-01-15T11:36:40;97655.72;;;8.40
22269;BMP280;11303;50.772;19.670;2023-01-15T11:38:48;97659.03;;;8.44
22269;BMP280;11303;50.772;19.670;2023-01-15T11:40:52;97646.19;;;8.46
22269;BMP280;11303;50.772;19.670;2023-01-15T11:42:54;97655.22;;;8.45
22269;BMP280;11303;50.772;19.670;2023-01-15T11:45:15;97648.09;;;8.42
22269;BMP280;11303;50.772;19.670;2023-01-15T11:47:35;97645.47;;;8.42
22269;BMP280;11303;50.772;19.670;2023-01-15T11:49:56;97646.50;;;8.48
22269;BMP280;11303;50.772;19.670;2023-01-15T11:52:29;97646.03;;;8.53
22269;BMP280;11303;50.772;19.670;2023-01-15T11:54:43;97636.50;;;8.59
22269;BMP280;11303;50.772;19.670;2023-01-15T11:57:10;97633.31;;;8.68
22269;BMP280;11303;50.772;19.670;2023-01-15T11:59:15;97639.59;;;8.74
22269;BMP280;11303;50.772;19.670;2023-01-15T12:01:49;97637.31;;;8.76
22269;BMP280;11303;50.772;19.670;2023-01-15T12:03:55;97627.63;;;8.69
22269;BMP280;11303;50.772;19.670;2023-01-15T12:06:01;97632.91;;;8.69
22269;BMP280;11303;50.772;19.670;2023-01-15T12:08:42;97637.50;;;8.65
22269;BMP280;11303;50.772;19.670;2023-01-15T12:10:48;97623.53;;;8.65
22269;BMP280;11303;50.772;19.670;2023-01-15T12:15:42;97624.69;;;8.64
22269;BMP280;11303;50.772;19.670;2023-01-15T12:20:25;97617.19;;;8.62
22269;BMP280;11303;50.772;19.670;2023-01-15T12:27:39;97636.81;;;8.61
22269;BMP280;11303;50.772;19.670;2023-01-15T12:29:49;97619.50;;;8.60
22269;BMP280;11303;50.772;19.670;2023-01-15T12:32:02;97613.03;;;8.61
22269;BMP280;11303;50.772;19.670;2023-01-15T12:34:32;97613.38;;;8.63
22269;BMP280;11303;50.772;19.670;2023-01-15T12:36:43;97606.59;;;8.62
22269;BMP280;11303;50.772;19.670;2023-01-15T12:39:00;97612.09;;;8.52
22269;BMP280;11303;50.772;19.670;2023-01-15T12:41:10;97619.69;;;8.50
22269;BMP280;11303;50.772;19.670;2023-01-15T12:43:24;97623.47;;;8.49
22269;BMP280;11303;50.772;19.670;2023-01-15T12:45:48;97619.75;;;8.46
22269;BMP280;11303;50.772;19.670;2023-01-15T12:48:08;97613.47;;;8.40
22269;BMP280;11303;50.772;19.670;2023-01-15T12:52:36;97615.06;;;8.34
22269;BMP280;11303;50.772;19.670;2023-01-15T12:54:51;97612.50;;;8.31
22269;BMP280;11303;50.772;19.670;2023-01-15T12:56:59;97606.50;;;8.30
22269;BMP280;11303;50.772;19.670;2023-01-15T13:01:51;97596.72;;;8.27
22269;BMP280;11303;50.772;19.670;2023-01-15T13:06:05;97600.16;;;8.24
22269;BMP280;11303;50.772;19.670;2023-01-15T13:08:17;97598.66;;;8.23
22269;BMP280;11303;50.772;19.670;2023-01-15T13:10:29;97594.59;;;8.19